Time;durP1;ratioP1;P1;durP2;ratioP2;P2;SDS_P1;SDS_P2;PMS_P1;PMS_P2;Temp;Humidity;BMP_temperature;BMP_pressure;BME280_temperature;BME280_humidity;BME280_pressure;Samples;Min_cycle;Max_cycle;Signal;HPM_P1;HPM_P2
2023/10/12 00:02:09;;;;;;;26.95;23.48;;;13.50;99.90;;;;;;6284658;22;20022;-87
2023/10/12 00:07:16;;;;;;;27.77;23.42;;;13.50;99.90;;;;;;6284285;22;20033;-87
2023/10/12 00:09:48;;;;;;;26.55;23.90;;;13.50;99.90;;;;;;6258625;22;20063;-87
2023/10/12 00:12:24;;;;;;;38.95;35.33;;;13.10;99.90;;;;;;6257332;22;20019;-87
2023/10/12 00:14:54;;;;;;;25.80;22.77;;;13.50;99.90;;;;;;6258742;22;20064;-87
2023/10/12 00:17:23;;;;;;;26.77;21.27;;;13.50;99.90;;;;;;6258334;22;20011;-87
2023/10/12 00:19:51;;;;;;;22.90;20.40;;;13.50;99.90;;;;;;6258669;22;20022;-87
2023/10/12 00:22:17;;;;;;;25.55;22.90;;;13.50;99.90;;;;;;6258548;22;20014;-87
2023/10/12 00:24:43;;;;;;;23.70;20.67;;;13.60;99.90;;;;;;6257203;22;20014;-87
2023/10/12 00:27:11;;;;;;;26.08;23.35;;;13.50;99.90;;;;;;6258037;22;20022;-87
2023/10/12 00:29:39;;;;;;;22.13;19.13;;;13.60;99.90;;;;;;6259489;22;20396;-88
2023/10/12 00:32:13;;;;;;;27.98;19.13;;;13.40;99.90;;;;;;6261283;22;20015;-88
2023/10/12 00:34:45;;;;;;;24.65;22.15;;;13.50;99.90;;;;;;6283879;22;20011;-88
2023/10/12 00:37:12;;;;;;;32.42;29.27;;;13.60;99.90;;;;;;6258798;22;20011;-88
2023/10/12 00:39:58;;;;;;;26.90;24.23;;;13.40;99.90;;;;;;6284592;22;20007;-88
2023/10/12 00:42:34;;;;;;;25.40;22.90;;;13.60;99.90;;;;;;6284931;22;20042;-87
2023/10/12 00:45:11;;;;;;;26.35;23.58;;;13.50;99.90;;;;;;6259426;22;20152;-88
2023/10/12 00:47:44;;;;;;;27.25;19.52;;;13.40;99.90;;;;;;6258533;22;20011;-87
2023/10/12 00:50:14;;;;;;;26.40;21.50;;;13.70;99.90;;;;;;6258200;22;20056;-87
2023/10/12 00:52:57;;;;;;;33.30;22.17;;;13.90;99.90;;;;;;6257061;22;20057;-86
2023/10/12 00:55:37;;;;;;;29.60;26.58;;;13.40;99.90;;;;;;6256399;22;20018;-87
2023/10/12 00:58:08;;;;;;;29.88;23.00;;;13.40;99.90;;;;;;6257130;22;20013;-87
2023/10/12 01:00:44;;;;;;;27.63;23.08;;;13.40;99.90;;;;;;6256936;22;20081;-86
2023/10/12 01:03:27;;;;;;;21.50;19.23;;;13.40;99.90;;;;;;6257188;22;20094;-86
2023/10/12 01:08:43;;;;;;;28.70;25.92;;;13.50;99.90;;;;;;6282458;22;20015;-86
2023/10/12 01:19:33;;;;;;;23.27;19.40;;;13.40;99.90;;;;;;6160017;23;20195;-86
2023/10/12 01:22:13;;;;;;;26.48;18.13;;;13.40;99.90;;;;;;6134210;23;20048;-86
2023/10/12 01:27:21;;;;;;;21.80;19.48;;;13.40;99.90;;;;;;6185414;23;20092;-86
2023/10/12 01:29:50;;;;;;;30.75;23.30;;;13.40;99.90;;;;;;6134826;23;20013;-86
2023/10/12 01:34:52;;;;;;;31.88;22.73;;;13.40;99.90;;;;;;6184528;23;20123;-85
2023/10/12 01:37:26;;;;;;;26.63;23.73;;;13.60;99.90;;;;;;6134500;23;20099;-86
2023/10/12 01:45:04;;;;;;;29.40;24.67;;;13.30;99.90;;;;;;6183807;23;20075;-86
2023/10/12 01:47:36;;;;;;;23.42;20.92;;;13.30;99.90;;;;;;6135044;23;20017;-85
2023/10/12 01:50:03;;;;;;;23.90;21.48;;;13.30;99.90;;;;;;6182171;22;20137;-86
2023/10/12 01:52:29;;;;;;;24.77;21.85;;;13.30;99.90;;;;;;6256271;22;20031;-86
2023/10/12 01:54:54;;;;;;;29.30;24.92;;;13.30;99.90;;;;;;6255849;22;20016;-87
2023/10/12 01:57:30;;;;;;;30.20;27.27;;;13.60;99.90;;;;;;6256090;22;20018;-87
2023/10/12 01:59:58;;;;;;;29.92;23.30;;;13.70;99.90;;;;;;6281120;22;20018;-87
2023/10/12 02:02:27;;;;;;;24.55;22.20;;;13.30;99.90;;;;;;6309034;22;20094;-86
2023/10/12 02:04:53;;;;;;;27.05;24.50;;;13.30;99.90;;;;;;6281248;22;20090;-86
2023/10/12 02:07:19;;;;;;;26.35;23.90;;;13.40;99.90;;;;;;6281239;22;20311;-86
2023/10/12 02:09:44;;;;;;;30.70;25.30;;;13.30;99.90;;;;;;6281046;22;20042;-86
2023/10/12 02:12:12;;;;;;;26.05;22.23;;;13.20;99.90;;;;;;6282166;22;20441;-87
2023/10/12 02:14:41;;;;;;;30.40;27.50;;;13.20;99.90;;;;;;6281412;22;20047;-86
2023/10/12 02:17:08;;;;;;;24.65;22.02;;;12.90;99.90;;;;;;6281569;22;20011;-86
2023/10/12 02:19:41;;;;;;;23.50;21.25;;;13.70;99.90;;;;;;6255886;22;20067;-85
2023/10/12 02:22:23;;;;;;;28.52;23.80;;;13.30;99.90;;;;;;6280790;22;20015;-86
2023/10/12 02:25:03;;;;;;;29.77;24.20;;;13.10;99.90;;;;;;6255276;22;20015;-86
2023/10/12 02:27:29;;;;;;;29.52;23.88;;;13.20;99.90;;;;;;6281630;22;20346;-86
2023/10/12 02:29:56;;;;;;;26.63;23.67;;;13.10;99.90;;;;;;6282033;22;20015;-86
2023/10/12 02:32:24;;;;;;;28.83;25.73;;;13.50;99.90;;;;;;6256044;22;20059;-87
2023/10/12 02:34:57;;;;;;;22.27;20.08;;;13.10;99.90;;;;;;6307741;22;20007;-87
2023/10/12 02:37:24;;;;;;;30.77;25.73;;;13.10;99.90;;;;;;6281535;22;20395;-86
2023/10/12 02:39:53;;;;;;;26.05;23.90;;;13.00;99.90;;;;;;6282050;22;20353;-86
2023/10/12 02:42:38;;;;;;;29.00;25.05;;;13.20;99.90;;;;;;6307591;22;20058;-86
2023/10/12 02:47:42;;;;;;;28.88;25.75;;;13.00;99.90;;;;;;6281922;22;20098;-86
2023/10/12 02:52:36;;;;;;;26.08;23.55;;;12.90;99.90;;;;;;6280332;22;20015;-86
2023/10/12 02:57:55;;;;;;;35.47;29.20;;;12.90;99.90;;;;;;6282918;22;20019;-86
2023/10/12 03:00:28;;;;;;;30.15;26.98;;;12.90;99.90;;;;;;6257623;22;20517;-86
2023/10/12 03:02:53;;;;;;;27.15;24.42;;;12.90;99.90;;;;;;6258170;22;20289;-86
2023/10/12 03:05:45;;;;;;;29.95;24.58;;;12.80;99.90;;;;;;6283387;22;20329;-86
2023/10/12 03:08:06;;;;;;;31.52;25.10;;;12.80;99.90;;;;;;6283229;22;20011;-86
2023/10/12 03:10:32;;;;;;;28.05;25.58;;;12.80;99.90;;;;;;6257609;22;20090;-86
2023/10/12 03:13:04;;;;;;;34.95;26.00;;;12.70;99.90;;;;;;6283173;22;20315;-86
2023/10/12 03:15:42;;;;;;;30.13;26.95;;;12.70;99.90;;;;;;6283234;22;20090;-86
2023/10/12 03:18:11;;;;;;;26.05;23.10;;;12.70;99.90;;;;;;6283377;22;20007;-86
2023/10/12 03:20:38;;;;;;;29.58;26.30;;;12.60;99.90;;;;;;6257443;22;20015;-86
2023/10/12 03:23:14;;;;;;;30.05;26.80;;;13.00;99.90;;;;;;6282813;22;20011;-87
2023/10/12 03:25:43;;;;;;;27.25;23.83;;;12.90;99.90;;;;;;6283205;22;20011;-87
2023/10/12 03:28:29;;;;;;;35.92;25.23;;;12.60;99.90;;;;;;6257144;22;20137;-86
2023/10/12 03:31:10;;;;;;;32.10;27.33;;;12.60;99.90;;;;;;6282678;22;20270;-87
2023/10/12 03:33:36;;;;;;;28.60;24.80;;;12.60;99.90;;;;;;6257337;22;20319;-86
2023/10/12 03:36:22;;;;;;;32.40;29.30;;;12.50;99.90;;;;;;6282725;22;20018;-86
2023/10/12 03:39:05;;;;;;;29.45;26.48;;;12.50;99.90;;;;;;6283117;22;20069;-86
2023/10/12 03:41:47;;;;;;;33.42;29.88;;;12.50;99.90;;;;;;6257667;22;20011;-87
2023/10/12 03:44:24;;;;;;;29.42;26.73;;;13.00;99.90;;;;;;6283953;22;20349;-87
2023/10/12 03:47:04;;;;;;;28.98;25.98;;;12.50;99.90;;;;;;6284249;22;20037;-87
2023/10/12 03:49:39;;;;;;;32.60;29.50;;;12.40;99.90;;;;;;6274355;22;20009;-86
2023/10/12 03:52:13;;;;;;;28.83;25.95;;;12.90;99.90;;;;;;6281007;22;20045;-87
2023/10/12 03:54:55;;;;;;;31.30;27.95;;;12.40;99.90;;;;;;6306466;22;20034;-86
2023/10/12 03:58:00;;;;;;;33.45;30.05;;;12.40;99.90;;;;;;6278062;22;20011;-87
2023/10/12 04:02:54;;;;;;;32.95;28.05;;;12.00;99.90;;;;;;6284683;22;20015;-87
2023/10/12 04:05:34;;;;;;;32.90;29.58;;;12.30;99.90;;;;;;6284431;22;20094;-88
2023/10/12 04:08:00;;;;;;;36.78;33.10;;;12.40;99.90;;;;;;6258971;22;20011;-87
2023/10/12 04:21:22;;;;;;;40.80;37.22;;;12.30;99.90;;;;;;6284558;22;20175;-87
2023/10/12 04:28:58;;;;;;;32.97;28.98;;;12.30;99.90;;;;;;6283527;22;20326;-87
2023/10/12 04:41:38;;;;;;;31.10;27.90;;;12.70;99.90;;;;;;6284853;22;20094;-89
2023/10/12 04:46:59;;;;;;;36.67;33.22;;;12.20;99.90;;;;;;6283946;22;20438;-85
2023/10/12 04:52:16;;;;;;;;;;;12.20;99.90;;;;;;6286194;22;20353;-87
2023/10/12 04:57:26;;;;;;;38.30;34.85;;;12.20;99.90;;;;;;6283948;22;20342;-88
2023/10/12 05:09:51;;;;;;;30.85;27.48;;;12.50;99.90;;;;;;6286777;22;20015;-87
2023/10/12 05:12:28;;;;;;;34.63;27.60;;;12.70;99.90;;;;;;6282817;22;20014;-88
2023/10/12 05:14:59;;;;;;;31.17;28.30;;;12.30;99.90;;;;;;6259055;22;20016;-89
2023/10/12 05:17:24;;;;;;;29.00;25.58;;;12.50;99.90;;;;;;6262206;22;20050;-88
2023/10/12 05:19:53;;;;;;;27.50;24.90;;;12.30;99.90;;;;;;6293305;22;20007;-86
2023/10/12 05:22:21;;;;;;;28.70;25.33;;;12.30;99.90;;;;;;6294514;22;20049;-87
2023/10/12 05:24:48;;;;;;;33.10;29.25;;;12.30;99.90;;;;;;6298293;22;20079;-91
2023/10/12 05:27:23;;;;;;;31.25;28.05;;;12.20;99.90;;;;;;6267556;22;20019;-84
2023/10/12 05:29:52;;;;;;;29.65;27.13;;;12.20;99.90;;;;;;6295633;22;20011;-86
2023/10/12 05:32:36;;;;;;;30.08;26.95;;;12.20;99.90;;;;;;6297177;22;20011;-90
2023/10/12 05:35:06;;;;;;;32.08;28.95;;;12.20;99.90;;;;;;6274484;22;20015;-89
2023/10/12 05:37:38;;;;;;;35.60;32.08;;;12.10;99.90;;;;;;6273045;22;20007;-88
2023/10/12 05:40:14;;;;;;;31.90;29.05;;;12.10;99.90;;;;;;6269566;22;20071;-90
2023/10/12 05:42:40;;;;;;;33.72;30.75;;;12.10;99.90;;;;;;6270560;22;20007;-88
2023/10/12 05:45:22;;;;;;;36.33;32.70;;;12.50;99.90;;;;;;6273484;22;20091;-89
2023/10/12 05:47:55;;;;;;;36.40;33.00;;;12.00;99.90;;;;;;6273964;22;20015;-88
2023/10/12 05:50:24;;;;;;;37.97;34.73;;;11.90;99.90;;;;;;6275525;22;20026;-91
2023/10/12 05:52:59;;;;;;;37.40;34.35;;;11.90;99.90;;;;;;6276515;22;20022;-90
2023/10/12 05:55:25;;;;;;;33.28;30.52;;;11.80;99.90;;;;;;6276078;22;20022;-89
2023/10/12 05:57:55;;;;;;;35.00;32.15;;;11.70;99.90;;;;;;6271603;22;20007;-91
2023/10/12 06:00:36;;;;;;;35.63;32.53;;;12.20;99.90;;;;;;6271619;22;20007;-88
2023/10/12 06:03:05;;;;;;;37.03;33.63;;;11.60;99.90;;;;;;6265154;22;20019;-88
2023/10/12 06:05:32;;;;;;;37.15;34.03;;;11.20;99.90;;;;;;6291700;22;20038;-87
2023/10/12 06:08:00;;;;;;;38.75;35.15;;;11.40;99.90;;;;;;6263768;22;20045;-86
2023/10/12 06:10:27;;;;;;;36.55;33.17;;;11.50;99.90;;;;;;6289044;22;20019;-88
2023/10/12 06:12:53;;;;;;;37.13;34.10;;;11.30;99.90;;;;;;6267478;22;20007;-88
2023/10/12 06:15:24;;;;;;;39.17;35.85;;;11.20;99.90;;;;;;6266799;22;20022;-84
2023/10/12 06:17:51;;;;;;;47.17;43.53;;;11.30;99.90;;;;;;6262787;22;20086;-86
2023/10/12 06:20:30;;;;;;;40.70;37.58;;;11.10;99.90;;;;;;6263522;22;20015;-87
2023/10/12 06:22:56;;;;;;;44.20;40.85;;;11.20;99.90;;;;;;6257746;22;20052;-84
2023/10/12 06:25:21;;;;;;;36.97;33.78;;;10.90;99.90;;;;;;6275222;22;20015;-85
2023/10/12 06:27:48;;;;;;;43.15;39.97;;;11.40;99.90;;;;;;6278885;22;20025;-84
2023/10/12 06:30:23;;;;;;;41.35;37.55;;;11.20;99.90;;;;;;6282484;22;20015;-85
2023/10/12 06:32:49;;;;;;;42.30;38.80;;;11.30;99.90;;;;;;6255847;22;20141;-85
2023/10/12 06:37:59;;;;;;;45.28;41.97;;;11.30;99.90;;;;;;6278172;22;20026;-84
2023/10/12 06:40:37;;;;;;;45.60;41.83;;;11.40;99.90;;;;;;6254549;22;20027;-83
2023/10/12 06:45:49;;;;;;;41.90;37.45;;;11.50;99.90;;;;;;6284826;22;20015;-85
2023/10/12 06:51:16;;;;;;;34.83;31.67;;;11.30;99.90;;;;;;6289273;22;20026;-86
2023/10/12 06:53:52;;;;;;;39.20;36.25;;;11.40;99.90;;;;;;6257956;22;20017;-85
2023/10/12 07:01:39;;;;;;;35.88;32.60;;;11.40;99.90;;;;;;6282295;22;20326;-84
2023/10/12 07:04:25;;;;;;;32.80;29.35;;;11.50;99.90;;;;;;6253833;22;20011;-84
2023/10/12 07:06:57;;;;;;;46.40;42.40;;;11.50;99.90;;;;;;6278044;22;20394;-83
2023/10/12 07:09:46;;;;;;;32.85;29.33;;;11.50;99.90;;;;;;6280062;22;20019;-84
2023/10/12 07:12:14;;;;;;;41.05;37.30;;;11.50;99.90;;;;;;6278413;22;20003;-85
2023/10/12 07:14:47;;;;;;;34.47;31.63;;;11.60;99.90;;;;;;6253647;22;20011;-83
2023/10/12 07:17:14;;;;;;;42.80;38.92;;;11.60;99.90;;;;;;6278963;22;20018;-83
2023/10/12 07:22:36;;;;;;;41.15;37.25;;;11.70;99.90;;;;;;6278290;22;20384;-81
2023/10/12 07:25:05;;;;;;;41.72;38.03;;;11.70;99.90;;;;;;6306214;22;20675;-82
2023/10/12 07:27:48;;;;;;;32.75;29.75;;;11.80;99.90;;;;;;6307389;22;20008;-84
2023/10/12 07:30:30;;;;;;;36.25;32.85;;;11.80;99.90;;;;;;6265685;22;20026;-86
2023/10/12 07:32:59;;;;;;;39.72;36.33;;;11.90;99.90;;;;;;6286401;22;20007;-86
2023/10/12 07:35:32;;;;;;;34.97;31.88;;;12.30;99.90;;;;;;6291352;22;20163;-85
2023/10/12 07:38:02;;;;;;;29.03;26.03;;;12.10;99.90;;;;;;6264214;22;20011;-85
2023/10/12 07:40:36;;;;;;;25.05;22.75;;;12.10;99.90;;;;;;6263771;22;20042;-81
2023/10/12 07:43:05;;;;;;;28.10;25.63;;;12.50;99.90;;;;;;6278511;22;20011;-86
2023/10/12 07:45:38;;;;;;;26.23;23.45;;;12.20;99.90;;;;;;6264207;22;20026;-83
2023/10/12 07:48:09;;;;;;;30.00;27.10;;;13.00;99.90;;;;;;6289330;22;20015;-84
2023/10/12 08:37:07;;;;;;;19.92;16.73;;;13.30;99.90;;;;;;5099950;27;20675;-85
2023/10/12 08:39:36;;;;;;;24.77;22.25;;;13.60;99.90;;;;;;5087126;28;20056;-85
2023/10/12 08:44:48;;;;;;;26.00;22.90;;;13.80;99.90;;;;;;5083074;28;20045;-86
2023/10/12 08:47:24;;;;;;;22.98;20.20;;;14.00;99.90;;;;;;5063016;28;20048;-82
2023/10/12 08:49:53;;;;;;;20.38;16.52;;;14.10;99.90;;;;;;5047258;28;20040;-83
2023/10/12 08:52:27;;;;;;;19.00;14.48;;;14.10;99.90;;;;;;5049315;28;20037;-82
2023/10/12 08:55:03;;;;;;;22.55;18.02;;;14.20;99.90;;;;;;5058380;28;20044;-85
2023/10/12 08:58:01;;;;;;;17.25;12.32;;;14.30;99.90;;;;;;5059180;28;20036;-84
2023/10/12 09:03:05;;;;;;;17.25;12.88;;;14.60;99.90;;;;;;5078447;28;20049;-85
2023/10/12 09:05:31;;;;;;;22.08;19.80;;;14.70;99.90;;;;;;5061922;28;20497;-85
2023/10/12 09:13:17;;;;;;;17.77;15.98;;;15.20;99.90;;;;;;5076098;28;20045;-85
2023/10/12 09:15:46;;;;;;;13.65;11.25;;;15.00;99.90;;;;;;5069509;28;20029;-88
2023/10/12 09:18:16;;;;;;;18.80;17.17;;;15.10;99.90;;;;;;5071353;28;20124;-89
2023/10/12 09:20:58;;;;;;;21.98;19.70;;;15.20;99.90;;;;;;5071100;28;20052;-89
2023/10/12 09:36:43;;;;;;;16.55;10.65;;;15.30;99.90;;;;;;5076518;28;20041;-87
2023/10/12 09:39:15;;;;;;;23.17;12.07;;;15.30;99.90;;;;;;5052557;28;20044;-89
2023/10/12 09:41:54;;;;;;;14.07;12.43;;;15.30;99.90;;;;;;5051317;28;20139;-87
2023/10/12 09:44:26;;;;;;;17.00;15.05;;;15.40;99.90;;;;;;5055959;28;20575;-88
2023/10/12 09:46:55;;;;;;;16.42;13.85;;;15.40;99.90;;;;;;5054583;28;20033;-86
2023/10/12 09:49:23;;;;;;;15.15;13.82;;;15.40;99.90;;;;;;5053978;28;20065;-87
2023/10/12 09:51:56;;;;;;;18.45;16.25;;;15.60;99.90;;;;;;5053743;28;20069;-88
2023/10/12 09:54:31;;;;;;;11.65;8.38;;;15.70;99.90;;;;;;5053162;28;20143;-90
2023/10/12 09:57:14;;;;;;;12.18;8.02;;;15.70;99.90;;;;;;5052851;28;20041;-85
2023/10/12 09:59:51;;;;;;;31.17;28.48;;;15.60;99.90;;;;;;5050460;28;20100;-89
2023/10/12 10:02:27;;;;;;;17.55;12.23;;;15.60;99.90;;;;;;5051227;28;20037;-85
2023/10/12 10:05:27;;;;;;;11.70;7.00;;;15.60;99.90;;;;;;5049912;28;20037;-87
2023/10/12 17:44:24;;;;;;;32.92;30.10;;;13.00;99.90;;;;;;6253245;22;2039528;-90
2023/10/12 17:46:50;;;;;;;40.28;36.80;;;13.00;99.90;;;;;;6291074;22;20047;-87
2023/10/12 17:49:17;;;;;;;39.03;35.92;;;13.50;99.90;;;;;;6290204;22;20441;-89
2023/10/12 17:51:44;;;;;;;35.35;32.08;;;13.30;99.90;;;;;;6290049;22;20265;-90
2023/10/12 17:54:11;;;;;;;34.08;31.17;;;12.90;99.90;;;;;;6291015;22;20071;-90
2023/10/12 17:56:37;;;;;;;37.42;34.33;;;12.90;99.90;;;;;;6267117;22;20022;-90
2023/10/12 17:59:04;;;;;;;31.50;28.20;;;12.90;99.90;;;;;;6291435;22;20017;-90
2023/10/12 18:01:30;;;;;;;31.88;28.88;;;12.90;99.90;;;;;;6292114;22;20056;-87
2023/10/12 18:04:00;;;;;;;32.03;29.33;;;13.00;99.90;;;;;;6292148;22;20019;-87
2023/10/12 18:06:26;;;;;;;30.88;27.80;;;12.80;99.90;;;;;;6288859;22;20057;-89
2023/10/12 18:08:52;;;;;;;34.30;31.27;;;12.80;99.90;;;;;;6289804;22;20011;-88
2023/10/12 18:11:18;;;;;;;31.30;28.65;;;13.50;99.90;;;;;;6300766;22;20099;-90
2023/10/12 18:13:44;;;;;;;28.33;25.75;;;12.80;99.90;;;;;;6306323;22;19995;-89
2023/10/12 18:16:10;;;;;;;30.15;27.50;;;12.80;99.90;;;;;;6300305;22;20023;-90
2023/10/12 18:18:40;;;;;;;32.53;29.88;;;12.80;99.90;;;;;;6301081;22;20011;-91
2023/10/12 18:21:06;;;;;;;31.45;28.67;;;12.90;99.90;;;;;;6302418;22;20069;-89
2023/10/12 18:23:39;;;;;;;28.60;25.85;;;13.30;99.90;;;;;;6296598;22;20011;-91
2023/10/12 18:26:09;;;;;;;29.90;27.27;;;12.80;99.90;;;;;;6271062;22;20015;-90
2023/10/12 18:28:36;;;;;;;29.27;26.58;;;12.80;99.90;;;;;;6296317;22;20010;-90
2023/10/12 18:31:05;;;;;;;31.48;28.42;;;12.80;99.90;;;;;;6295248;22;20019;-91
2023/10/12 18:33:33;;;;;;;30.48;27.80;;;12.80;99.90;;;;;;6295087;22;20015;-91
2023/10/12 18:36:06;;;;;;;30.23;27.15;;;13.50;99.90;;;;;;6297557;22;20006;-91
2023/10/12 18:38:34;;;;;;;29.45;26.77;;;12.80;99.90;;;;;;6268856;22;20019;-91
2023/10/12 18:41:05;;;;;;;36.20;32.97;;;12.90;99.90;;;;;;6292834;22;20015;-91
2023/10/12 18:43:32;;;;;;;29.75;26.98;;;12.80;99.90;;;;;;6292083;22;20011;-91
2023/10/12 18:45:59;;;;;;;32.13;29.17;;;12.90;99.90;;;;;;6292202;22;20011;-90
2023/10/12 18:48:28;;;;;;;29.90;26.90;;;13.30;99.90;;;;;;6292779;22;20015;-92
2023/10/12 18:51:13;;;;;;;31.02;28.38;;;12.80;99.90;;;;;;6293609;22;20550;-91
2023/10/12 18:53:42;;;;;;;36.15;33.03;;;12.80;99.90;;;;;;6262490;22;20016;-93
2023/10/12 18:56:15;;;;;;;32.20;28.95;;;13.30;99.90;;;;;;6261407;22;20046;-93
2023/10/12 18:58:42;;;;;;;32.67;30.00;;;12.80;99.90;;;;;;6236735;22;20019;-90
2023/10/12 19:01:12;;;;;;;32.47;29.05;;;12.90;99.90;;;;;;6261277;22;20082;-91
2023/10/12 19:03:39;;;;;;;29.55;26.92;;;12.80;99.90;;;;;;6260645;22;20046;-90
2023/10/12 19:06:09;;;;;;;33.15;30.08;;;13.40;99.90;;;;;;6261532;22;20073;-89
2023/10/12 19:08:35;;;;;;;26.52;24.17;;;13.10;99.90;;;;;;6249335;22;20065;-82
2023/10/12 19:11:02;;;;;;;28.33;25.60;;;12.90;99.90;;;;;;6280515;22;20019;-89
2023/10/12 19:13:29;;;;;;;30.05;27.55;;;12.80;99.90;;;;;;6261458;22;20007;-92
2023/10/12 19:15:56;;;;;;;32.47;29.13;;;12.90;99.90;;;;;;6235118;22;20012;-92
2023/10/12 19:18:22;;;;;;;30.95;27.73;;;12.80;99.90;;;;;;6259497;22;20102;-92
2023/10/12 19:20:57;;;;;;;32.90;29.73;;;13.10;99.90;;;;;;6261872;22;20023;-91
2023/10/12 19:23:24;;;;;;;27.17;24.35;;;12.80;99.90;;;;;;6260479;22;20012;-93
2023/10/12 19:25:57;;;;;;;30.70;28.30;;;12.90;99.90;;;;;;6259464;22;20015;-90
2023/10/12 19:28:26;;;;;;;33.28;30.42;;;12.90;99.90;;;;;;6261159;22;20016;-92
2023/10/12 19:31:06;;;;;;;31.33;28.42;;;12.90;99.90;;;;;;6260889;22;20069;-92
2023/10/12 19:33:32;;;;;;;30.10;27.70;;;12.90;99.90;;;;;;6236959;22;20019;-91
2023/10/12 19:35:58;;;;;;;31.92;28.85;;;12.90;99.90;;;;;;6260282;22;20008;-92
2023/10/12 19:38:26;;;;;;;30.27;27.25;;;13.40;99.90;;;;;;6262209;22;20046;-94
2023/10/12 19:41:04;;;;;;;34.83;32.08;;;12.90;99.90;;;;;;6265309;22;20015;-95
2023/10/12 19:43:36;;;;;;;30.45;27.45;;;12.90;99.90;;;;;;6265414;22;20012;-94
2023/10/12 19:46:14;;;;;;;35.20;31.42;;;12.90;99.90;;;;;;6263420;22;20635;-92
2023/10/12 19:48:40;;;;;;;33.38;30.05;;;12.90;99.90;;;;;;6238117;22;20015;-89
2023/10/12 19:51:15;;;;;;;34.15;30.88;;;12.90;99.90;;;;;;6262340;22;20036;-90
2023/10/12 19:53:43;;;;;;;34.53;31.45;;;12.90;99.90;;;;;;6262625;22;20023;-90
2023/10/12 19:56:10;;;;;;;33.80;30.35;;;12.90;99.90;;;;;;6260113;22;20066;-91
2023/10/12 19:58:36;;;;;;;36.25;33.05;;;12.90;99.90;;;;;;6258488;22;20016;-91
2023/10/12 20:01:14;;;;;;;35.78;32.35;;;13.10;99.90;;;;;;6259595;22;20007;-90
2023/10/12 20:03:41;;;;;;;34.05;30.80;;;12.90;99.90;;;;;;6260289;22;20346;-90
2023/10/12 20:06:10;;;;;;;35.08;32.08;;;12.90;99.90;;;;;;6260311;22;20035;-91
2023/10/12 20:08:39;;;;;;;34.85;31.75;;;12.90;99.90;;;;;;6261927;22;20063;-88
2023/10/12 20:11:06;;;;;;;35.15;31.65;;;13.30;99.90;;;;;;6261105;22;20043;-90
2023/10/12 20:13:37;;;;;;;33.85;29.20;;;13.30;99.90;;;;;;6261184;22;20023;-89
2023/10/12 20:16:06;;;;;;;32.30;29.08;;;12.90;99.90;;;;;;6262360;22;20012;-90
2023/10/12 20:18:32;;;;;;;35.10;31.40;;;12.90;99.90;;;;;;6261503;22;20022;-90
2023/10/12 20:20:59;;;;;;;33.90;30.55;;;12.90;99.90;;;;;;6261028;22;20008;-90
2023/10/12 20:23:25;;;;;;;35.65;31.55;;;12.90;99.90;;;;;;6261552;22;20015;-89
2023/10/12 20:25:53;;;;;;;33.60;28.88;;;13.00;99.90;;;;;;6261640;22;20173;-89
2023/10/12 20:28:22;;;;;;;32.38;26.10;;;13.30;99.90;;;;;;6260083;22;20384;-90
2023/10/12 20:30:49;;;;;;;36.08;32.50;;;13.10;99.90;;;;;;6260992;22;20000;-90
2023/10/12 20:33:17;;;;;;;35.60;32.03;;;12.90;99.90;;;;;;6260800;22;20016;-89
2023/10/12 20:35:45;;;;;;;33.15;29.67;;;13.10;99.90;;;;;;6261140;22;20019;-90
2023/10/12 20:38:12;;;;;;;35.92;30.70;;;13.50;99.90;;;;;;6260719;22;20015;-89
2023/10/12 20:40:39;;;;;;;41.10;36.08;;;13.00;99.90;;;;;;6260504;22;20035;-89
2023/10/12 20:43:08;;;;;;;37.05;31.50;;;13.00;99.90;;;;;;6261822;22;20016;-89
2023/10/12 20:45:43;;;;;;;37.95;33.17;;;13.00;99.90;;;;;;6261017;22;20012;-90
2023/10/12 20:48:11;;;;;;;37.67;31.98;;;13.30;99.90;;;;;;6261583;22;20015;-90
2023/10/12 20:50:43;;;;;;;37.65;34.13;;;13.00;99.90;;;;;;6261384;22;20061;-91
2023/10/12 20:53:12;;;;;;;36.15;32.00;;;13.10;99.90;;;;;;6261185;22;20019;-89
2023/10/12 20:55:45;;;;;;;41.60;34.65;;;13.00;99.90;;;;;;6262144;22;20018;-89
2023/10/12 20:58:20;;;;;;;37.45;33.50;;;13.00;99.90;;;;;;6260194;22;20042;-90
2023/10/12 21:00:51;;;;;;;38.22;29.95;;;13.00;99.90;;;;;;6261658;22;20095;-90
2023/10/12 21:03:21;;;;;;;40.70;33.75;;;13.00;99.90;;;;;;6260511;22;20011;-90
2023/10/12 21:05:50;;;;;;;38.80;30.50;;;13.50;99.90;;;;;;6271118;22;20028;-89
2023/10/12 21:08:23;;;;;;;47.03;36.95;;;13.00;99.90;;;;;;6275660;22;20010;-90
2023/10/12 21:10:50;;;;;;;36.88;31.90;;;13.60;99.90;;;;;;6276640;22;20031;-89
2023/10/12 21:13:19;;;;;;;49.00;33.58;;;13.10;99.90;;;;;;6276000;22;20004;-89
2023/10/12 21:15:53;;;;;;;43.80;33.50;;;13.10;99.90;;;;;;6261335;22;20093;-90
2023/10/12 21:18:27;;;;;;;38.53;33.47;;;13.10;99.90;;;;;;6261599;22;20064;-89
2023/10/12 21:21:08;;;;;;;46.40;32.45;;;13.10;99.90;;;;;;6260971;22;20145;-90
2023/10/12 21:23:45;;;;;;;42.03;32.30;;;13.30;99.90;;;;;;6259838;22;20064;-90
2023/10/12 21:26:13;;;;;;;43.78;33.15;;;13.50;99.90;;;;;;6260130;22;20022;-90
2023/10/12 21:28:41;;;;;;;48.67;33.10;;;13.20;99.90;;;;;;6235199;22;20012;-90
2023/10/12 21:31:08;;;;;;;52.97;34.25;;;13.20;99.90;;;;;;6258869;22;20039;-90
2023/10/12 21:33:34;;;;;;;45.80;32.13;;;13.20;99.90;;;;;;6260691;22;20334;-90
2023/10/12 21:35:59;;;;;;;41.53;30.45;;;13.10;99.90;;;;;;6260491;22;20039;-87
2023/10/12 21:38:32;;;;;;;51.08;35.33;;;13.20;99.90;;;;;;6260148;22;20454;-90
2023/10/12 21:41:04;;;;;;;51.03;39.47;;;13.40;99.90;;;;;;6259605;22;20063;-90
2023/10/12 21:43:30;;;;;;;51.15;32.85;;;13.20;99.90;;;;;;6260541;22;20016;-89
2023/10/12 21:45:58;;;;;;;56.45;35.78;;;13.20;99.90;;;;;;6259686;22;20026;-90
2023/10/12 21:48:26;;;;;;;53.22;33.72;;;13.40;99.90;;;;;;6260008;22;20011;-89
2023/10/12 21:50:56;;;;;;;73.03;37.75;;;13.70;99.90;;;;;;6261493;22;20007;-90
2023/10/12 21:53:22;;;;;;;49.05;33.80;;;13.20;99.90;;;;;;6260588;22;20377;-90
2023/10/12 21:55:58;;;;;;;62.13;32.88;;;13.30;99.90;;;;;;6260069;22;20065;-90
2023/10/12 21:58:26;;;;;;;55.35;33.05;;;13.30;99.90;;;;;;6260065;22;20026;-89
2023/10/12 22:00:57;;;;;;;56.28;32.47;;;13.20;99.90;;;;;;6259466;22;20015;-89
2023/10/12 22:03:24;;;;;;;56.92;38.92;;;13.40;99.90;;;;;;6260748;22;20059;-88
2023/10/12 22:05:50;;;;;;;55.20;34.90;;;13.30;99.90;;;;;;6260680;22;20109;-89
2023/10/12 22:08:19;;;;;;;82.30;40.45;;;13.30;99.90;;;;;;6260021;22;20046;-90
2023/10/12 22:10:51;;;;;;;61.83;33.92;;;13.50;99.90;;;;;;6259021;22;20072;-88
2023/10/12 22:13:22;;;;;;;60.42;37.88;;;13.60;99.90;;;;;;6259795;22;20437;-89
2023/10/12 22:16:01;;;;;;;76.03;39.70;;;14.00;99.90;;;;;;6259794;22;20012;-90
2023/10/12 22:18:27;;;;;;;65.45;39.38;;;13.40;99.90;;;;;;6259681;22;20016;-90
2023/10/12 22:20:56;;;;;;;72.78;38.92;;;13.70;99.90;;;;;;6259338;22;20034;-89
2023/10/12 22:23:22;;;;;;;68.30;37.40;;;14.00;99.90;;;;;;6259764;22;20026;-88
2023/10/12 22:25:50;;;;;;;67.40;38.00;;;13.60;99.90;;;;;;6260052;22;20037;-89
2023/10/12 22:28:17;;;;;;;73.97;38.30;;;14.00;99.90;;;;;;6259489;22;20043;-90
2023/10/12 22:30:42;;;;;;;54.08;35.15;;;13.90;99.90;;;;;;6258703;22;20016;-90
2023/10/12 22:33:09;;;;;;;92.22;40.38;;;13.40;99.90;;;;;;6259995;22;20015;-89
2023/10/12 22:35:35;;;;;;;77.65;41.50;;;13.40;99.90;;;;;;6260337;22;20016;-88
2023/10/12 22:38:03;;;;;;;68.35;39.75;;;13.50;99.90;;;;;;6235702;22;20019;-89
2023/10/12 22:40:31;;;;;;;63.00;38.88;;;13.70;99.90;;;;;;6259658;22;20368;-89
2023/10/12 22:42:57;;;;;;;85.97;39.05;;;13.50;99.90;;;;;;6260892;22;20011;-89
2023/10/12 22:45:24;;;;;;;75.00;39.08;;;14.00;99.90;;;;;;6261414;22;20027;-87
2023/10/12 22:47:52;;;;;;;86.30;40.20;;;13.50;99.90;;;;;;6260243;22;20090;-90
2023/10/12 22:50:18;;;;;;;122.63;45.25;;;13.50;99.90;;;;;;6260082;22;20026;-90
2023/10/12 22:52:45;;;;;;;73.13;40.85;;;14.30;99.90;;;;;;6260241;22;20047;-88
2023/10/12 22:55:12;;;;;;;148.77;49.70;;;13.60;99.90;;;;;;6260390;22;20051;-88
2023/10/12 22:57:37;;;;;;;82.68;39.15;;;13.70;99.90;;;;;;6259034;22;20090;-90
2023/10/12 23:00:17;;;;;;;80.15;40.28;;;14.20;99.90;;;;;;6260337;22;20046;-90
2023/10/12 23:02:43;;;;;;;116.88;50.42;;;13.70;99.90;;;;;;6260684;22;20012;-90
2023/10/12 23:05:12;;;;;;;109.82;43.58;;;13.70;99.90;;;;;;6260574;22;20089;-90
2023/10/12 23:07:41;;;;;;;166.45;54.70;;;13.70;99.90;;;;;;6260574;22;20016;-90
2023/10/12 23:10:07;;;;;;;82.15;42.67;;;13.70;99.90;;;;;;6260649;22;20018;-90